sensor_id;sensor_type;location;lat;lon;timestamp;P1;durP1;ratioP1;P2;durP2;ratioP2
7110;SDS011;3597;42.650;23.386;2022-11-20T00:00:23;2.20;;;2.20;;
7110;SDS011;3597;42.650;23.386;2022-11-20T00:02:48;2.70;;;2.60;;
7110;SDS011;3597;42.650;23.386;2022-11-20T00:05:14;2.20;;;2.20;;
7110;SDS011;3597;42.650;23.386;2022-11-20T00:07:39;5.13;;;2.40;;
7110;SDS011;3597;42.650;23.386;2022-11-20T00:10:05;2.30;;;2.20;;
7110;SDS011;3597;42.650;23.386;2022-11-20T00:12:31;2.57;;;2.50;;
7110;SDS011;3597;42.650;23.386;2022-11-20T00:14:56;2.30;;;2.20;;
7110;SDS011;3597;42.650;23.386;2022-11-20T00:17:21;2.20;;;2.20;;
7110;SDS011;3597;42.650;23.386;2022-11-20T00:19:47;1.20;;;1.20;;
7110;SDS011;3597;42.650;23.386;2022-11-20T00:22:12;1.80;;;1.80;;
7110;SDS011;3597;42.650;23.386;2022-11-20T00:24:37;1.77;;;1.77;;
7110;SDS011;3597;42.650;23.386;2022-11-20T00:27:03;1.73;;;1.63;;
7110;SDS011;3597;42.650;23.386;2022-11-20T00:29:28;1.80;;;1.80;;
7110;SDS011;3597;42.650;23.386;2022-11-20T00:31:54;2.00;;;2.00;;
7110;SDS011;3597;42.650;23.386;2022-11-20T00:34:19;1.70;;;1.70;;
7110;SDS011;3597;42.650;23.386;2022-11-20T00:36:44;1.67;;;1.67;;
7110;SDS011;3597;42.650;23.386;2022-11-20T00:39:10;1.70;;;1.70;;
7110;SDS011;3597;42.650;23.386;2022-11-20T00:41:35;1.80;;;1.80;;
7110;SDS011;3597;42.650;23.386;2022-11-20T00:44:00;1.50;;;1.50;;
7110;SDS011;3597;42.650;23.386;2022-11-20T00:46:26;1.50;;;1.50;;
7110;SDS011;3597;42.650;23.386;2022-11-20T00:48:52;1.47;;;1.47;;
7110;SDS011;3597;42.650;23.386;2022-11-20T00:51:19;1.93;;;1.70;;
7110;SDS011;3597;42.650;23.386;2022-11-20T00:53:46;1.77;;;1.77;;
7110;SDS011;3597;42.650;23.386;2022-11-20T00:56:13;1.67;;;1.60;;
7110;SDS011;3597;42.650;23.386;2022-11-20T00:58:40;1.43;;;1.43;;
7110;SDS011;3597;42.650;23.386;2022-11-20T01:01:11;1.60;;;1.60;;
7110;SDS011;3597;42.650;23.386;2022-11-20T01:03:43;1.47;;;1.47;;
7110;SDS011;3597;42.650;23.386;2022-11-20T01:06:11;2.00;;;1.90;;
7110;SDS011;3597;42.650;23.386;2022-11-20T01:08:40;1.93;;;1.90;;
7110;SDS011;3597;42.650;23.386;2022-11-20T01:11:08;1.43;;;1.43;;
7110;SDS011;3597;42.650;23.386;2022-11-20T01:13:35;1.50;;;1.50;;
7110;SDS011;3597;42.650;23.386;2022-11-20T01:16:07;2.10;;;2.00;;
7110;SDS011;3597;42.650;23.386;2022-11-20T01:18:44;1.63;;;1.63;;
7110;SDS011;3597;42.650;23.386;2022-11-20T01:21:12;1.80;;;1.80;;
7110;SDS011;3597;42.650;23.386;2022-11-20T01:23:48;1.50;;;1.50;;
7110;SDS011;3597;42.650;23.386;2022-11-20T01:26:15;1.63;;;1.63;;
7110;SDS011;3597;42.650;23.386;2022-11-20T01:28:42;1.73;;;1.73;;
7110;SDS011;3597;42.650;23.386;2022-11-20T01:33:38;1.80;;;1.80;;
7110;SDS011;3597;42.650;23.386;2022-11-20T01:36:04;1.67;;;1.67;;
7110;SDS011;3597;42.650;23.386;2022-11-20T01:38:31;2.07;;;1.97;;
7110;SDS011;3597;42.650;23.386;2022-11-20T01:40:56;1.57;;;1.57;;
7110;SDS011;3597;42.650;23.386;2022-11-20T01:43:22;2.00;;;2.00;;
7110;SDS011;3597;42.650;23.386;2022-11-20T01:46:12;2.00;;;1.90;;
7110;SDS011;3597;42.650;23.386;2022-11-20T01:48:54;1.77;;;1.77;;
7110;SDS011;3597;42.650;23.386;2022-11-20T01:51:29;1.80;;;1.80;;
7110;SDS011;3597;42.650;23.386;2022-11-20T01:53:55;1.90;;;1.90;;
7110;SDS011;3597;42.650;23.386;2022-11-20T01:56:22;1.70;;;1.70;;
7110;SDS011;3597;42.650;23.386;2022-11-20T01:58:50;1.70;;;1.70;;
7110;SDS011;3597;42.650;23.386;2022-11-20T02:01:17;1.73;;;1.73;;
7110;SDS011;3597;42.650;23.386;2022-11-20T02:03:42;1.70;;;1.70;;
7110;SDS011;3597;42.650;23.386;2022-11-20T02:09:09;2.00;;;2.00;;
7110;SDS011;3597;42.650;23.386;2022-11-20T02:11:36;2.07;;;2.00;;
7110;SDS011;3597;42.650;23.386;2022-11-20T02:14:02;1.80;;;1.80;;
7110;SDS011;3597;42.650;23.386;2022-11-20T02:16:28;2.37;;;2.37;;
7110;SDS011;3597;42.650;23.386;2022-11-20T02:18:56;2.00;;;2.00;;
7110;SDS011;3597;42.650;23.386;2022-11-20T02:21:28;1.53;;;1.53;;
7110;SDS011;3597;42.650;23.386;2022-11-20T02:24:07;1.70;;;1.70;;
7110;SDS011;3597;42.650;23.386;2022-11-20T02:26:37;2.00;;;1.90;;
7110;SDS011;3597;42.650;23.386;2022-11-20T02:29:05;1.70;;;1.70;;
7110;SDS011;3597;42.650;23.386;2022-11-20T02:31:37;2.47;;;1.80;;
7110;SDS011;3597;42.650;23.386;2022-11-20T02:34:04;1.60;;;1.60;;
7110;SDS011;3597;42.650;23.386;2022-11-20T02:36:29;1.63;;;1.63;;
7110;SDS011;3597;42.650;23.386;2022-11-20T02:38:55;1.30;;;1.30;;
7110;SDS011;3597;42.650;23.386;2022-11-20T02:41:21;1.50;;;1.50;;
7110;SDS011;3597;42.650;23.386;2022-11-20T02:43:47;1.53;;;1.43;;
7110;SDS011;3597;42.650;23.386;2022-11-20T02:46:12;1.30;;;1.30;;
7110;SDS011;3597;42.650;23.386;2022-11-20T02:48:38;1.20;;;1.20;;
7110;SDS011;3597;42.650;23.386;2022-11-20T02:51:04;1.10;;;1.10;;
7110;SDS011;3597;42.650;23.386;2022-11-20T02:53:29;1.20;;;1.20;;
7110;SDS011;3597;42.650;23.386;2022-11-20T02:55:55;1.03;;;0.97;;
7110;SDS011;3597;42.650;23.386;2022-11-20T02:58:20;3.40;;;1.10;;
7110;SDS011;3597;42.650;23.386;2022-11-20T03:00:45;1.20;;;1.20;;
7110;SDS011;3597;42.650;23.386;2022-11-20T03:03:11;0.90;;;0.90;;
7110;SDS011;3597;42.650;23.386;2022-11-20T03:05:36;1.10;;;1.10;;
7110;SDS011;3597;42.650;23.386;2022-11-20T03:08:01;1.10;;;1.10;;
7110;SDS011;3597;42.650;23.386;2022-11-20T03:10:27;1.03;;;1.03;;
7110;SDS011;3597;42.650;23.386;2022-11-20T03:12:55;1.20;;;1.20;;
7110;SDS011;3597;42.650;23.386;2022-11-20T03:15:24;1.20;;;1.20;;
7110;SDS011;3597;42.650;23.386;2022-11-20T03:17:52;1.00;;;1.00;;
7110;SDS011;3597;42.650;23.386;2022-11-20T03:20:19;1.00;;;1.00;;
7110;SDS011;3597;42.650;23.386;2022-11-20T03:22:44;1.70;;;1.20;;
7110;SDS011;3597;42.650;23.386;2022-11-20T03:25:10;1.20;;;1.20;;
7110;SDS011;3597;42.650;23.386;2022-11-20T03:27:35;1.00;;;1.00;;
7110;SDS011;3597;42.650;23.386;2022-11-20T03:30:01;1.20;;;1.20;;
7110;SDS011;3597;42.650;23.386;2022-11-20T03:32:26;1.00;;;1.00;;
7110;SDS011;3597;42.650;23.386;2022-11-20T03:34:51;1.00;;;1.00;;
7110;SDS011;3597;42.650;23.386;2022-11-20T03:37:17;1.10;;;1.10;;
7110;SDS011;3597;42.650;23.386;2022-11-20T03:39:42;1.10;;;1.10;;
7110;SDS011;3597;42.650;23.386;2022-11-20T03:42:08;1.20;;;1.20;;
7110;SDS011;3597;42.650;23.386;2022-11-20T03:44:53;1.10;;;1.10;;
7110;SDS011;3597;42.650;23.386;2022-11-20T03:47:19;1.13;;;1.13;;
7110;SDS011;3597;42.650;23.386;2022-11-20T03:49:44;1.00;;;1.00;;
7110;SDS011;3597;42.650;23.386;2022-11-20T03:52:10;1.20;;;1.20;;
7110;SDS011;3597;42.650;23.386;2022-11-20T03:54:35;1.20;;;1.20;;
7110;SDS011;3597;42.650;23.386;2022-11-20T03:57:00;1.00;;;1.00;;
7110;SDS011;3597;42.650;23.386;2022-11-20T03:59:26;1.17;;;1.17;;
7110;SDS011;3597;42.650;23.386;2022-11-20T04:01:51;1.10;;;1.10;;
7110;SDS011;3597;42.650;23.386;2022-11-20T04:04:16;0.97;;;0.97;;
7110;SDS011;3597;42.650;23.386;2022-11-20T04:06:42;1.40;;;1.10;;
7110;SDS011;3597;42.650;23.386;2022-11-20T04:09:07;1.00;;;1.00;;
7110;SDS011;3597;42.650;23.386;2022-11-20T04:11:34;0.97;;;0.97;;
7110;SDS011;3597;42.650;23.386;2022-11-20T04:14:02;1.00;;;1.00;;
7110;SDS011;3597;42.650;23.386;2022-11-20T04:16:29;1.13;;;1.13;;
7110;SDS011;3597;42.650;23.386;2022-11-20T04:18:56;0.93;;;0.93;;
7110;SDS011;3597;42.650;23.386;2022-11-20T04:21:23;1.00;;;1.00;;
7110;SDS011;3597;42.650;23.386;2022-11-20T04:23:50;1.10;;;1.10;;
7110;SDS011;3597;42.650;23.386;2022-11-20T04:26:17;1.80;;;1.03;;
7110;SDS011;3597;42.650;23.386;2022-11-20T04:28:43;0.97;;;0.97;;
7110;SDS011;3597;42.650;23.386;2022-11-20T04:31:13;0.97;;;0.97;;
7110;SDS011;3597;42.650;23.386;2022-11-20T04:33:40;0.90;;;0.90;;
7110;SDS011;3597;42.650;23.386;2022-11-20T04:36:07;1.00;;;1.00;;
7110;SDS011;3597;42.650;23.386;2022-11-20T04:38:35;1.00;;;1.00;;
7110;SDS011;3597;42.650;23.386;2022-11-20T04:41:01;0.83;;;0.83;;
7110;SDS011;3597;42.650;23.386;2022-11-20T04:43:28;1.23;;;1.20;;
7110;SDS011;3597;42.650;23.386;2022-11-20T04:45:55;1.00;;;1.00;;
7110;SDS011;3597;42.650;23.386;2022-11-20T04:48:21;1.00;;;1.00;;
7110;SDS011;3597;42.650;23.386;2022-11-20T04:50:47;1.20;;;1.10;;
7110;SDS011;3597;42.650;23.386;2022-11-20T04:53:12;0.97;;;0.97;;
7110;SDS011;3597;42.650;23.386;2022-11-20T04:55:38;1.00;;;1.00;;
7110;SDS011;3597;42.650;23.386;2022-11-20T04:58:04;1.27;;;1.27;;
7110;SDS011;3597;42.650;23.386;2022-11-20T05:00:29;1.17;;;1.17;;
7110;SDS011;3597;42.650;23.386;2022-11-20T05:02:55;1.10;;;1.10;;
7110;SDS011;3597;42.650;23.386;2022-11-20T05:05:20;1.10;;;1.10;;
7110;SDS011;3597;42.650;23.386;2022-11-20T05:07:45;1.10;;;1.10;;
7110;SDS011;3597;42.650;23.386;2022-11-20T05:10:11;1.30;;;1.20;;
7110;SDS011;3597;42.650;23.386;2022-11-20T05:12:36;1.23;;;1.23;;
7110;SDS011;3597;42.650;23.386;2022-11-20T05:15:01;1.10;;;1.10;;
7110;SDS011;3597;42.650;23.386;2022-11-20T05:17:27;1.20;;;1.20;;
7110;SDS011;3597;42.650;23.386;2022-11-20T05:19:52;1.10;;;1.10;;
7110;SDS011;3597;42.650;23.386;2022-11-20T05:22:18;1.30;;;1.30;;
7110;SDS011;3597;42.650;23.386;2022-11-20T05:24:43;1.10;;;1.10;;
7110;SDS011;3597;42.650;23.386;2022-11-20T05:27:08;1.20;;;1.20;;
7110;SDS011;3597;42.650;23.386;2022-11-20T05:29:34;1.33;;;1.33;;
7110;SDS011;3597;42.650;23.386;2022-11-20T05:31:59;1.17;;;1.17;;
7110;SDS011;3597;42.650;23.386;2022-11-20T05:34:24;1.10;;;1.10;;
7110;SDS011;3597;42.650;23.386;2022-11-20T05:36:50;1.00;;;1.00;;
7110;SDS011;3597;42.650;23.386;2022-11-20T05:39:15;1.20;;;1.20;;
7110;SDS011;3597;42.650;23.386;2022-11-20T05:41:41;1.10;;;1.10;;
7110;SDS011;3597;42.650;23.386;2022-11-20T05:44:06;1.30;;;1.30;;
7110;SDS011;3597;42.650;23.386;2022-11-20T05:46:31;1.57;;;1.50;;
7110;SDS011;3597;42.650;23.386;2022-11-20T05:48:57;1.13;;;1.13;;
7110;SDS011;3597;42.650;23.386;2022-11-20T05:51:23;1.43;;;1.30;;
7110;SDS011;3597;42.650;23.386;2022-11-20T05:53:48;1.13;;;1.13;;
7110;SDS011;3597;42.650;23.386;2022-11-20T05:56:18;1.10;;;1.10;;
7110;SDS011;3597;42.650;23.386;2022-11-20T05:58:44;1.57;;;1.50;;
7110;SDS011;3597;42.650;23.386;2022-11-20T06:01:15;1.10;;;1.10;;
7110;SDS011;3597;42.650;23.386;2022-11-20T06:03:42;1.17;;;1.17;;
7110;SDS011;3597;42.650;23.386;2022-11-20T06:06:11;1.20;;;1.20;;
7110;SDS011;3597;42.650;23.386;2022-11-20T06:08:36;1.70;;;1.60;;
7110;SDS011;3597;42.650;23.386;2022-11-20T06:11:05;1.40;;;1.40;;
7110;SDS011;3597;42.650;23.386;2022-11-20T06:13:31;1.40;;;1.40;;
7110;SDS011;3597;42.650;23.386;2022-11-20T06:15:57;1.40;;;1.40;;
7110;SDS011;3597;42.650;23.386;2022-11-20T06:18:22;1.30;;;1.30;;
7110;SDS011;3597;42.650;23.386;2022-11-20T06:20:47;1.20;;;1.20;;
7110;SDS011;3597;42.650;23.386;2022-11-20T06:23:13;1.33;;;1.33;;
7110;SDS011;3597;42.650;23.386;2022-11-20T06:25:39;1.53;;;1.53;;
7110;SDS011;3597;42.650;23.386;2022-11-20T06:28:05;1.37;;;1.33;;
7110;SDS011;3597;42.650;23.386;2022-11-20T06:30:31;1.27;;;1.27;;
7110;SDS011;3597;42.650;23.386;2022-11-20T06:32:56;1.20;;;1.20;;
7110;SDS011;3597;42.650;23.386;2022-11-20T06:35:22;1.30;;;1.30;;
7110;SDS011;3597;42.650;23.386;2022-11-20T06:37:47;1.20;;;1.20;;
7110;SDS011;3597;42.650;23.386;2022-11-20T06:40:12;1.27;;;1.27;;
7110;SDS011;3597;42.650;23.386;2022-11-20T06:42:38;1.20;;;1.20;;
7110;SDS011;3597;42.650;23.386;2022-11-20T06:45:03;1.40;;;1.40;;
7110;SDS011;3597;42.650;23.386;2022-11-20T06:47:29;1.47;;;1.37;;
7110;SDS011;3597;42.650;23.386;2022-11-20T06:49:54;1.23;;;1.23;;
7110;SDS011;3597;42.650;23.386;2022-11-20T06:52:20;2.20;;;1.10;;
7110;SDS011;3597;42.650;23.386;2022-11-20T06:54:45;1.17;;;1.17;;
7110;SDS011;3597;42.650;23.386;2022-11-20T06:57:10;1.20;;;1.20;;
7110;SDS011;3597;42.650;23.386;2022-11-20T06:59:36;1.00;;;1.00;;
7110;SDS011;3597;42.650;23.386;2022-11-20T07:02:01;1.40;;;1.40;;
7110;SDS011;3597;42.650;23.386;2022-11-20T07:04:27;1.40;;;1.40;;
7110;SDS011;3597;42.650;23.386;2022-11-20T07:06:52;1.30;;;1.30;;
7110;SDS011;3597;42.650;23.386;2022-11-20T07:09:18;1.30;;;1.30;;
7110;SDS011;3597;42.650;23.386;2022-11-20T07:11:43;1.27;;;1.27;;
7110;SDS011;3597;42.650;23.386;2022-11-20T07:14:08;1.00;;;1.00;;
7110;SDS011;3597;42.650;23.386;2022-11-20T07:16:34;1.20;;;1.20;;
7110;SDS011;3597;42.650;23.386;2022-11-20T07:18:59;1.30;;;1.30;;
7110;SDS011;3597;42.650;23.386;2022-11-20T07:21:24;1.33;;;1.33;;
7110;SDS011;3597;42.650;23.386;2022-11-20T07:23:50;1.20;;;1.20;;
7110;SDS011;3597;42.650;23.386;2022-11-20T07:26:15;1.80;;;1.70;;
7110;SDS011;3597;42.650;23.386;2022-11-20T07:28:43;1.20;;;1.20;;
7110;SDS011;3597;42.650;23.386;2022-11-20T07:31:09;1.10;;;1.10;;
7110;SDS011;3597;42.650;23.386;2022-11-20T07:33:34;1.23;;;1.23;;
7110;SDS011;3597;42.650;23.386;2022-11-20T07:36:00;1.30;;;1.30;;
7110;SDS011;3597;42.650;23.386;2022-11-20T07:38:25;1.20;;;1.20;;
7110;SDS011;3597;42.650;23.386;2022-11-20T07:40:54;1.20;;;1.20;;
7110;SDS011;3597;42.650;23.386;2022-11-20T07:43:21;1.40;;;1.30;;
7110;SDS011;3597;42.650;23.386;2022-11-20T07:45:46;1.30;;;1.23;;
7110;SDS011;3597;42.650;23.386;2022-11-20T07:48:11;1.27;;;1.27;;
7110;SDS011;3597;42.650;23.386;2022-11-20T07:50:37;1.60;;;1.50;;
7110;SDS011;3597;42.650;23.386;2022-11-20T07:53:03;1.10;;;1.10;;
7110;SDS011;3597;42.650;23.386;2022-11-20T07:55:29;1.60;;;1.60;;
7110;SDS011;3597;42.650;23.386;2022-11-20T07:57:55;1.10;;;1.10;;
7110;SDS011;3597;42.650;23.386;2022-11-20T08:00:21;1.10;;;1.10;;
7110;SDS011;3597;42.650;23.386;2022-11-20T08:02:47;1.20;;;1.20;;
7110;SDS011;3597;42.650;23.386;2022-11-20T08:05:12;1.50;;;1.40;;
7110;SDS011;3597;42.650;23.386;2022-11-20T08:07:38;1.20;;;1.20;;
7110;SDS011;3597;42.650;23.386;2022-11-20T08:10:04;1.37;;;1.37;;
7110;SDS011;3597;42.650;23.386;2022-11-20T08:12:30;4.13;;;1.63;;
7110;SDS011;3597;42.650;23.386;2022-11-20T08:15:14;1.30;;;1.30;;
7110;SDS011;3597;42.650;23.386;2022-11-20T08:17:39;1.40;;;1.40;;
7110;SDS011;3597;42.650;23.386;2022-11-20T08:20:05;1.13;;;1.13;;
7110;SDS011;3597;42.650;23.386;2022-11-20T08:22:30;1.30;;;1.30;;
7110;SDS011;3597;42.650;23.386;2022-11-20T08:24:56;1.03;;;1.03;;
7110;SDS011;3597;42.650;23.386;2022-11-20T08:27:22;1.13;;;1.13;;
7110;SDS011;3597;42.650;23.386;2022-11-20T08:29:47;1.30;;;1.30;;
7110;SDS011;3597;42.650;23.386;2022-11-20T08:32:13;1.93;;;1.30;;
7110;SDS011;3597;42.650;23.386;2022-11-20T08:34:38;1.17;;;1.17;;
7110;SDS011;3597;42.650;23.386;2022-11-20T08:37:03;1.53;;;1.53;;
7110;SDS011;3597;42.650;23.386;2022-11-20T08:39:29;1.10;;;1.10;;
7110;SDS011;3597;42.650;23.386;2022-11-20T08:41:54;1.17;;;1.17;;
7110;SDS011;3597;42.650;23.386;2022-11-20T08:44:20;1.40;;;1.40;;
7110;SDS011;3597;42.650;23.386;2022-11-20T08:46:45;1.50;;;1.50;;
7110;SDS011;3597;42.650;23.386;2022-11-20T08:49:12;1.50;;;1.40;;
7110;SDS011;3597;42.650;23.386;2022-11-20T08:51:38;1.43;;;1.40;;
7110;SDS011;3597;42.650;23.386;2022-11-20T08:54:04;1.70;;;1.60;;
7110;SDS011;3597;42.650;23.386;2022-11-20T08:56:30;1.30;;;1.30;;
7110;SDS011;3597;42.650;23.386;2022-11-20T08:58:55;1.40;;;1.40;;
7110;SDS011;3597;42.650;23.386;2022-11-20T09:01:21;1.60;;;1.50;;
7110;SDS011;3597;42.650;23.386;2022-11-20T09:03:48;1.30;;;1.30;;
7110;SDS011;3597;42.650;23.386;2022-11-20T09:06:14;1.20;;;1.20;;
7110;SDS011;3597;42.650;23.386;2022-11-20T09:08:40;1.27;;;1.27;;
7110;SDS011;3597;42.650;23.386;2022-11-20T09:11:05;1.30;;;1.30;;
7110;SDS011;3597;42.650;23.386;2022-11-20T09:13:32;1.23;;;1.23;;
7110;SDS011;3597;42.650;23.386;2022-11-20T09:15:59;1.50;;;1.50;;
7110;SDS011;3597;42.650;23.386;2022-11-20T09:18:26;1.33;;;1.33;;
7110;SDS011;3597;42.650;23.386;2022-11-20T09:20:56;1.60;;;1.50;;
7110;SDS011;3597;42.650;23.386;2022-11-20T09:23:23;1.80;;;1.80;;
7110;SDS011;3597;42.650;23.386;2022-11-20T09:25:48;1.77;;;1.67;;
7110;SDS011;3597;42.650;23.386;2022-11-20T09:28:13;2.17;;;2.07;;
7110;SDS011;3597;42.650;23.386;2022-11-20T09:30:39;1.70;;;1.70;;
7110;SDS011;3597;42.650;23.386;2022-11-20T09:33:05;1.87;;;1.87;;
7110;SDS011;3597;42.650;23.386;2022-11-20T09:35:31;1.70;;;1.70;;
7110;SDS011;3597;42.650;23.386;2022-11-20T09:37:56;1.80;;;1.80;;
7110;SDS011;3597;42.650;23.386;2022-11-20T09:40:26;1.40;;;1.40;;
7110;SDS011;3597;42.650;23.386;2022-11-20T09:56:46;1.70;;;1.70;;
7110;SDS011;3597;42.650;23.386;2022-11-20T09:59:25;2.23;;;2.23;;
7110;SDS011;3597;42.650;23.386;2022-11-20T10:01:52;1.80;;;1.80;;
7110;SDS011;3597;42.650;23.386;2022-11-20T10:04:19;2.00;;;2.00;;
7110;SDS011;3597;42.650;23.386;2022-11-20T10:09:38;2.13;;;2.13;;
7110;SDS011;3597;42.650;23.386;2022-11-20T10:14:47;2.00;;;2.00;;
7110;SDS011;3597;42.650;23.386;2022-11-20T10:29:07;2.13;;;1.87;;
7110;SDS011;3597;42.650;23.386;2022-11-20T10:31:40;1.93;;;1.93;;
7110;SDS011;3597;42.650;23.386;2022-11-20T10:34:12;4.23;;;2.73;;
7110;SDS011;3597;42.650;23.386;2022-11-20T10:36:44;2.37;;;2.37;;
7110;SDS011;3597;42.650;23.386;2022-11-20T10:39:18;1.90;;;1.80;;
7110;SDS011;3597;42.650;23.386;2022-11-20T10:41:49;2.17;;;2.10;;
7110;SDS011;3597;42.650;23.386;2022-11-20T10:44:18;2.40;;;2.30;;
7110;SDS011;3597;42.650;23.386;2022-11-20T10:47:11;2.53;;;2.47;;
7110;SDS011;3597;42.650;23.386;2022-11-20T10:49:42;2.30;;;2.20;;
7110;SDS011;3597;42.650;23.386;2022-11-20T10:52:24;2.17;;;2.17;;
7110;SDS011;3597;42.650;23.386;2022-11-20T10:55:23;2.10;;;2.00;;
7110;SDS011;3597;42.650;23.386;2022-11-20T10:58:04;2.30;;;2.30;;
7110;SDS011;3597;42.650;23.386;2022-11-20T11:00:34;2.40;;;2.40;;
7110;SDS011;3597;42.650;23.386;2022-11-20T11:02:59;2.13;;;2.10;;
7110;SDS011;3597;42.650;23.386;2022-11-20T11:05:41;2.00;;;2.00;;
7110;SDS011;3597;42.650;23.386;2022-11-20T11:08:10;2.00;;;2.00;;
7110;SDS011;3597;42.650;23.386;2022-11-20T11:10:46;1.93;;;1.83;;
7110;SDS011;3597;42.650;23.386;2022-11-20T11:13:22;2.10;;;2.00;;
7110;SDS011;3597;42.650;23.386;2022-11-20T11:15:52;5.37;;;1.90;;
7110;SDS011;3597;42.650;23.386;2022-11-20T11:18:31;2.77;;;2.00;;
7110;SDS011;3597;42.650;23.386;2022-11-20T11:21:00;2.10;;;2.10;;
7110;SDS011;3597;42.650;23.386;2022-11-20T11:23:38;2.60;;;2.50;;
7110;SDS011;3597;42.650;23.386;2022-11-20T11:26:05;1.80;;;1.80;;
7110;SDS011;3597;42.650;23.386;2022-11-20T11:29:02;1.33;;;1.33;;
7110;SDS011;3597;42.650;23.386;2022-11-20T11:34:07;1.37;;;1.37;;
7110;SDS011;3597;42.650;23.386;2022-11-20T11:36:35;1.23;;;1.23;;
7110;SDS011;3597;42.650;23.386;2022-11-20T11:39:00;1.20;;;1.20;;
7110;SDS011;3597;42.650;23.386;2022-11-20T11:41:28;1.57;;;1.57;;
7110;SDS011;3597;42.650;23.386;2022-11-20T11:44:00;1.07;;;1.07;;
7110;SDS011;3597;42.650;23.386;2022-11-20T11:46:54;2.50;;;2.50;;
7110;SDS011;3597;42.650;23.386;2022-11-20T11:49:20;1.80;;;1.80;;
7110;SDS011;3597;42.650;23.386;2022-11-20T12:03:09;3.30;;;2.17;;
7110;SDS011;3597;42.650;23.386;2022-11-20T12:05:21;1.20;;;1.20;;
7110;SDS011;3597;42.650;23.386;2022-11-20T12:13:10;2.70;;;2.70;;
7110;SDS011;3597;42.650;23.386;2022-11-20T12:15:44;3.03;;;3.03;;
7110;SDS011;3597;42.650;23.386;2022-11-20T12:18:14;3.70;;;3.70;;
7110;SDS011;3597;42.650;23.386;2022-11-20T12:20:42;2.70;;;2.70;;
7110;SDS011;3597;42.650;23.386;2022-11-20T12:43:26;2.23;;;2.23;;
7110;SDS011;3597;42.650;23.386;2022-11-20T12:57:15;2.03;;;2.03;;
7110;SDS011;3597;42.650;23.386;2022-11-20T13:05:39;3.20;;;3.20;;
7110;SDS011;3597;42.650;23.386;2022-11-20T13:08:15;3.43;;;3.43;;
7110;SDS011;3597;42.650;23.386;2022-11-20T13:16:19;7.03;;;6.93;;
7110;SDS011;3597;42.650;23.386;2022-11-20T13:18:50;4.20;;;4.17;;
7110;SDS011;3597;42.650;23.386;2022-11-20T13:21:20;4.17;;;4.17;;
7110;SDS011;3597;42.650;23.386;2022-11-20T13:23:46;6.87;;;6.77;;
7110;SDS011;3597;42.650;23.386;2022-11-20T13:28:41;3.90;;;3.80;;
7110;SDS011;3597;42.650;23.386;2022-11-20T13:31:22;6.40;;;6.30;;
7110;SDS011;3597;42.650;23.386;2022-11-20T13:33:59;3.37;;;3.37;;
7110;SDS011;3597;42.650;23.386;2022-11-20T13:36:26;3.70;;;3.60;;
7110;SDS011;3597;42.650;23.386;2022-11-20T13:38:53;2.77;;;2.77;;
7110;SDS011;3597;42.650;23.386;2022-11-20T13:41:30;2.23;;;2.23;;
7110;SDS011;3597;42.650;23.386;2022-11-20T13:46:50;2.27;;;2.27;;
7110;SDS011;3597;42.650;23.386;2022-11-20T13:58:13;14.43;;;13.93;;
7110;SDS011;3597;42.650;23.386;2022-11-20T14:01:08;3.90;;;3.90;;
7110;SDS011;3597;42.650;23.386;2022-11-20T14:03:35;6.63;;;6.33;;
7110;SDS011;3597;42.650;23.386;2022-11-20T14:06:02;6.73;;;6.60;;
7110;SDS011;3597;42.650;23.386;2022-11-20T14:08:32;3.83;;;3.77;;
7110;SDS011;3597;42.650;23.386;2022-11-20T14:11:02;3.07;;;3.00;;
7110;SDS011;3597;42.650;23.386;2022-11-20T14:16:45;3.00;;;3.00;;
7110;SDS011;3597;42.650;23.386;2022-11-20T14:21:46;4.07;;;4.07;;
7110;SDS011;3597;42.650;23.386;2022-11-20T14:24:12;6.20;;;6.10;;
7110;SDS011;3597;42.650;23.386;2022-11-20T14:26:41;4.60;;;4.50;;
7110;SDS011;3597;42.650;23.386;2022-11-20T14:31:42;3.40;;;3.40;;
7110;SDS011;3597;42.650;23.386;2022-11-20T14:34:21;12.60;;;12.20;;
7110;SDS011;3597;42.650;23.386;2022-11-20T14:36:48;7.53;;;7.30;;
7110;SDS011;3597;42.650;23.386;2022-11-20T14:39:20;8.27;;;8.07;;
7110;SDS011;3597;42.650;23.386;2022-11-20T14:41:50;3.53;;;3.53;;
7110;SDS011;3597;42.650;23.386;2022-11-20T14:44:17;5.87;;;5.77;;
7110;SDS011;3597;42.650;23.386;2022-11-20T14:46:42;5.47;;;5.17;;
7110;SDS011;3597;42.650;23.386;2022-11-20T14:49:08;4.93;;;4.83;;
7110;SDS011;3597;42.650;23.386;2022-11-20T14:51:36;10.07;;;9.70;;
7110;SDS011;3597;42.650;23.386;2022-11-20T14:59:25;6.47;;;6.37;;
7110;SDS011;3597;42.650;23.386;2022-11-20T15:01:59;16.53;;;16.03;;
7110;SDS011;3597;42.650;23.386;2022-11-20T15:04:26;12.87;;;12.47;;
7110;SDS011;3597;42.650;23.386;2022-11-20T15:06:52;10.03;;;9.63;;
7110;SDS011;3597;42.650;23.386;2022-11-20T15:09:21;9.10;;;8.90;;
7110;SDS011;3597;42.650;23.386;2022-11-20T15:11:56;6.10;;;5.90;;
7110;SDS011;3597;42.650;23.386;2022-11-20T15:14:23;6.30;;;6.10;;
7110;SDS011;3597;42.650;23.386;2022-11-20T15:16:50;8.93;;;8.77;;
7110;SDS011;3597;42.650;23.386;2022-11-20T15:19:17;9.77;;;9.57;;
7110;SDS011;3597;42.650;23.386;2022-11-20T15:21:44;11.13;;;10.83;;
7110;SDS011;3597;42.650;23.386;2022-11-20T15:24:09;11.87;;;11.37;;
7110;SDS011;3597;42.650;23.386;2022-11-20T15:26:35;12.73;;;12.23;;
7110;SDS011;3597;42.650;23.386;2022-11-20T15:29:01;8.67;;;8.47;;
7110;SDS011;3597;42.650;23.386;2022-11-20T15:31:27;11.07;;;10.77;;
7110;SDS011;3597;42.650;23.386;2022-11-20T15:33:52;6.37;;;6.27;;
7110;SDS011;3597;42.650;23.386;2022-11-20T15:36:18;7.57;;;7.47;;
7110;SDS011;3597;42.650;23.386;2022-11-20T15:38:43;6.90;;;6.80;;
7110;SDS011;3597;42.650;23.386;2022-11-20T15:41:08;6.00;;;5.90;;
7110;SDS011;3597;42.650;23.386;2022-11-20T15:43:35;6.43;;;6.33;;
7110;SDS011;3597;42.650;23.386;2022-11-20T15:46:01;5.70;;;5.60;;
7110;SDS011;3597;42.650;23.386;2022-11-20T15:48:32;5.70;;;5.60;;
7110;SDS011;3597;42.650;23.386;2022-11-20T15:53:35;5.33;;;5.23;;
7110;SDS011;3597;42.650;23.386;2022-11-20T15:56:01;4.73;;;4.53;;
7110;SDS011;3597;42.650;23.386;2022-11-20T15:58:27;6.83;;;6.73;;
7110;SDS011;3597;42.650;23.386;2022-11-20T16:00:52;9.17;;;8.77;;
7110;SDS011;3597;42.650;23.386;2022-11-20T16:03:18;6.63;;;6.53;;
7110;SDS011;3597;42.650;23.386;2022-11-20T16:05:43;5.07;;;4.97;;
7110;SDS011;3597;42.650;23.386;2022-11-20T16:08:09;4.93;;;4.93;;
7110;SDS011;3597;42.650;23.386;2022-11-20T16:10:35;6.63;;;6.53;;
7110;SDS011;3597;42.650;23.386;2022-11-20T16:13:01;6.70;;;6.60;;
7110;SDS011;3597;42.650;23.386;2022-11-20T16:15:46;3.43;;;3.43;;
7110;SDS011;3597;42.650;23.386;2022-11-20T16:18:17;3.40;;;3.40;;
7110;SDS011;3597;42.650;23.386;2022-11-20T16:20:48;6.80;;;6.70;;
7110;SDS011;3597;42.650;23.386;2022-11-20T16:23:15;2.63;;;2.53;;
7110;SDS011;3597;42.650;23.386;2022-11-20T16:25:41;3.37;;;3.30;;
7110;SDS011;3597;42.650;23.386;2022-11-20T16:28:07;2.63;;;2.63;;
7110;SDS011;3597;42.650;23.386;2022-11-20T16:30:32;2.40;;;2.40;;
7110;SDS011;3597;42.650;23.386;2022-11-20T16:32:58;3.27;;;3.27;;
7110;SDS011;3597;42.650;23.386;2022-11-20T16:35:31;2.10;;;2.10;;
7110;SDS011;3597;42.650;23.386;2022-11-20T16:37:56;2.00;;;2.00;;
7110;SDS011;3597;42.650;23.386;2022-11-20T16:40:23;2.20;;;2.20;;
7110;SDS011;3597;42.650;23.386;2022-11-20T16:42:49;2.03;;;2.03;;
7110;SDS011;3597;42.650;23.386;2022-11-20T16:45:14;2.10;;;2.10;;
7110;SDS011;3597;42.650;23.386;2022-11-20T16:47:40;2.07;;;1.97;;
7110;SDS011;3597;42.650;23.386;2022-11-20T16:50:06;2.00;;;1.90;;
7110;SDS011;3597;42.650;23.386;2022-11-20T16:52:31;1.70;;;1.70;;
7110;SDS011;3597;42.650;23.386;2022-11-20T16:54:57;1.80;;;1.80;;
7110;SDS011;3597;42.650;23.386;2022-11-20T16:57:23;1.83;;;1.73;;
7110;SDS011;3597;42.650;23.386;2022-11-20T16:59:48;1.80;;;1.70;;
7110;SDS011;3597;42.650;23.386;2022-11-20T17:02:14;1.60;;;1.57;;
7110;SDS011;3597;42.650;23.386;2022-11-20T17:04:40;1.53;;;1.53;;
7110;SDS011;3597;42.650;23.386;2022-11-20T17:07:06;2.17;;;2.07;;
7110;SDS011;3597;42.650;23.386;2022-11-20T17:09:31;1.33;;;1.33;;
7110;SDS011;3597;42.650;23.386;2022-11-20T17:11:57;1.53;;;1.53;;